PFKT

Details ICAO PFKT (KTS)
Name Brevig Mission
Region USA (Alaska)
Timezone America/Nome (UTC-9.0)
Plans Departing 1
Arriving 1
Stats Elevation 3 ft / 1 m (AMSL)
Location 65.331802° -166.470272°
Runways 3
Magnetic Variation 9.568° E
Sunrise 2017-12-13 21:15:38 UTC / 2017-12-13 12:15:38 Local
Sunset 2017-12-14 00:47:47 UTC / 2017-12-13 15:47:47 Local
Advertisement - Login to hide

Runways

ID Width Length Bearing (true) Bearing (mag) Surface Threshold Offset Overrun Length
04 75 ft / 23 m 2,104 ft / 641 m 54.64° 45.07° Gravel 0 ft / 0 m 0 ft / 0 m
10 25 ft / 8 m 1,001 ft / 305 m 117.00° 107.43° Gravel 0 ft / 0 m 0 ft / 0 m
11 98 ft / 30 m 2,980 ft / 908 m 129.70° 120.13° Gravel 0 ft / 0 m 0 ft / 0 m
22 75 ft / 23 m 2,104 ft / 641 m 234.65° 225.08° Gravel 0 ft / 0 m 0 ft / 0 m
28 25 ft / 8 m 1,001 ft / 305 m 297.00° 287.43° Gravel 0 ft / 0 m 0 ft / 0 m
29 98 ft / 30 m 2,980 ft / 908 m 309.72° 300.15° Gravel 0 ft / 0 m 0 ft / 0 m

Map

Weather


0- 5 10 15 20 25 30 35+ Temperature / ° C

Clouds and Precipitation
Forecast for 2017-12-14 12:00 UTC. Updated an hour ago

Ground ~20,000 ft ~40,000 ft Winds

METAR

PFKT 140808Z AUTO 27007KT 3SM -SN BR OVC005 M01/M02 A2941 RMK AO2 P0000 FZRANO

TAF

Not found

Frequencies

Unicom 123.00 MHz CTAF
Warning: Do not use this data for real-world aviation or navigation. No guarantee of current accuracy is given.